Time;durP1;ratioP1;P1;durP2;ratioP2;P2;SDS_P1;SDS_P2;PMS_P1;PMS_P2;Temp;Humidity;BMP_temperature;BMP_pressure;BME280_temperature;BME280_humidity;BME280_pressure;Samples;Min_cycle;Max_cycle;Signal;HPM_P1;HPM_P2
2023/07/19 00:02:17;;;;;;;0.08;0.08;;;;;;;20.13;73.98;101013.22;7344571;19;20129;-58
2023/07/19 00:04:43;;;;;;;0.10;0.10;;;;;;;20.11;73.81;101017.75;7343991;19;20026;-58
2023/07/19 00:07:08;;;;;;;0.10;0.10;;;;;;;20.04;74.23;101010.25;7345772;19;20566;-58
2023/07/19 00:09:34;;;;;;;0.10;0.10;;;;;;;20.08;74.53;101017.09;7345225;19;20585;-58
2023/07/19 00:11:59;;;;;;;0.10;0.10;;;;;;;19.99;74.53;101007.00;7343247;19;20015;-58
2023/07/19 00:14:24;;;;;;;0.00;0.00;;;;;;;20.04;74.13;101012.91;7340458;19;20019;-58
2023/07/19 00:16:50;;;;;;;0.05;0.05;;;;;;;20.03;74.46;101019.16;7338145;19;20017;-58
2023/07/19 00:19:15;;;;;;;0.10;0.10;;;;;;;20.00;73.97;101020.16;7347199;19;20557;-59
2023/07/19 00:21:41;;;;;;;0.10;0.10;;;;;;;20.00;74.32;101024.63;7346405;19;20045;-57
2023/07/19 00:24:06;;;;;;;0.10;0.10;;;;;;;19.98;74.76;101031.81;7341933;19;20030;-57
2023/07/19 00:26:31;;;;;;;0.10;0.10;;;;;;;19.95;75.39;101028.38;7345839;19;20039;-59
2023/07/19 00:28:57;;;;;;;0.10;0.10;;;;;;;19.94;75.48;101024.03;7345702;19;20841;-58
2023/07/19 00:31:23;;;;;;;0.00;0.00;;;;;;;19.92;75.10;101023.25;7345231;19;20022;-57
2023/07/19 00:33:48;;;;;;;0.10;0.10;;;;;;;19.90;74.67;101029.56;7345721;19;20016;-58
2023/07/19 00:36:14;;;;;;;0.10;0.10;;;;;;;19.65;75.06;100991.19;7346921;19;20033;-58
2023/07/19 00:38:39;;;;;;;0.10;0.10;;;;;;;19.61;75.35;100983.50;7340902;19;20038;-58
2023/07/19 00:41:05;;;;;;;0.10;0.10;;;;;;;19.85;74.95;101032.47;7343890;19;20027;-58
2023/07/19 00:43:30;;;;;;;0.00;0.00;;;;;;;19.84;75.82;101033.44;7344557;19;20018;-58
2023/07/19 00:45:56;;;;;;;0.10;0.10;;;;;;;19.82;75.94;101034.44;7345304;19;20011;-58
2023/07/19 00:48:22;;;;;;;0.05;0.05;;;;;;;19.79;76.01;101032.84;7345518;19;20006;-58
2023/07/19 00:50:50;;;;;;;0.08;0.08;;;;;;;19.76;76.38;101034.78;7346637;19;20006;-58
2023/07/19 00:53:17;;;;;;;0.10;0.10;;;;;;;19.71;75.72;101032.38;7342632;19;20082;-59
2023/07/19 00:55:47;;;;;;;0.10;0.10;;;;;;;19.70;76.22;101033.34;7345161;19;20022;-58
2023/07/19 00:58:13;;;;;;;0.00;0.00;;;;;;;19.63;76.48;101034.63;7341887;19;20054;-58
2023/07/19 01:00:38;;;;;;;0.10;0.10;;;;;;;19.58;76.39;101032.19;7346054;19;20006;-58
2023/07/19 01:03:03;;;;;;;0.10;0.10;;;;;;;19.53;76.33;101025.44;7343301;19;20018;-58
2023/07/19 01:05:29;;;;;;;0.00;0.00;;;;;;;19.49;76.24;101034.50;7346306;19;20761;-58
2023/07/19 01:07:54;;;;;;;0.00;0.00;;;;;;;19.43;76.71;101033.88;7342116;19;20022;-58
2023/07/19 01:10:20;;;;;;;0.00;0.00;;;;;;;19.38;76.78;101035.09;7333285;19;20021;-58
2023/07/19 01:13:05;;;;;;;0.10;0.10;;;;;;;19.36;75.40;101032.53;7345360;19;20397;-58
2023/07/19 01:15:30;;;;;;;0.10;0.10;;;;;;;19.29;77.22;101030.28;7342837;19;20010;-58
2023/07/19 01:17:55;;;;;;;0.10;0.10;;;;;;;19.20;76.68;101023.66;7344835;19;20011;-57
2023/07/19 01:20:21;;;;;;;0.00;0.00;;;;;;;19.21;77.30;101025.41;7343041;19;20708;-58
2023/07/19 01:22:46;;;;;;;0.10;0.10;;;;;;;19.19;77.39;101029.91;7346884;19;20017;-58
2023/07/19 01:25:12;;;;;;;0.10;0.10;;;;;;;19.15;77.02;101025.72;7347972;19;20018;-57
2023/07/19 01:27:38;;;;;;;0.00;0.00;;;;;;;19.06;77.10;101005.00;7356457;19;20030;-58
2023/07/19 01:30:04;;;;;;;0.00;0.00;;;;;;;19.10;76.77;101025.09;7352523;19;20120;-58
2023/07/19 01:32:30;;;;;;;0.05;0.05;;;;;;;19.07;76.38;101027.94;7355374;19;20620;-58
2023/07/19 01:34:55;;;;;;;0.10;0.10;;;;;;;19.02;75.99;101027.31;7354035;19;20018;-58
2023/07/19 01:37:21;;;;;;;0.00;0.00;;;;;;;18.99;76.85;101032.75;7353269;19;20066;-58
2023/07/19 01:39:46;;;;;;;0.10;0.10;;;;;;;18.93;76.33;101032.13;7349568;19;20014;-59
2023/07/19 01:42:12;;;;;;;0.05;0.05;;;;;;;18.91;77.05;101033.16;7355031;19;20002;-58
2023/07/19 01:44:38;;;;;;;0.08;0.08;;;;;;;18.87;76.88;101027.16;7353685;19;20023;-58
2023/07/19 01:47:03;;;;;;;0.10;0.10;;;;;;;18.82;77.07;101028.34;7351779;19;20070;-58
2023/07/19 01:49:29;;;;;;;0.00;0.00;;;;;;;18.80;77.03;101025.75;7350950;19;20114;-58
2023/07/19 01:51:54;;;;;;;0.10;0.10;;;;;;;18.60;77.25;100996.78;7350057;19;21537;-59
2023/07/19 01:54:19;;;;;;;0.00;0.00;;;;;;;18.75;77.36;101027.78;7356220;19;20007;-58
2023/07/19 01:56:45;;;;;;;0.00;0.00;;;;;;;18.70;77.60;101024.53;7349835;19;20073;-58
2023/07/19 01:59:10;;;;;;;0.10;0.10;;;;;;;18.33;76.62;100968.19;7350560;19;20549;-58
2023/07/19 02:01:36;;;;;;;0.10;0.10;;;;;;;18.67;76.88;101033.47;7354625;19;20017;-58
2023/07/19 02:04:02;;;;;;;0.10;0.10;;;;;;;18.63;76.82;101029.25;7355878;19;20027;-58
2023/07/19 02:06:27;;;;;;;0.00;0.00;;;;;;;18.62;76.78;101026.69;7349971;19;20050;-57
2023/07/19 02:08:52;;;;;;;0.00;0.00;;;;;;;18.56;76.94;101027.00;7356051;19;20018;-58
2023/07/19 02:11:18;;;;;;;0.03;0.03;;;;;;;18.56;76.79;101035.78;7354772;19;20015;-58
2023/07/19 02:13:44;;;;;;;0.00;0.00;;;;;;;18.53;76.97;101033.28;7348896;19;20037;-58
2023/07/19 02:16:09;;;;;;;0.08;0.08;;;;;;;18.39;76.96;101015.47;7351384;19;20505;-58
2023/07/19 02:18:35;;;;;;;0.00;0.00;;;;;;;18.50;76.68;101045.81;7357084;19;20046;-58
2023/07/19 02:21:00;;;;;;;0.00;0.00;;;;;;;18.48;77.07;101039.75;7351924;19;20006;-58
2023/07/19 02:23:25;;;;;;;0.10;0.10;;;;;;;18.45;77.36;101042.53;7357093;19;20338;-58
2023/07/19 02:25:51;;;;;;;0.03;0.03;;;;;;;18.42;76.97;101046.22;7355360;19;20010;-58
2023/07/19 02:28:17;;;;;;;0.10;0.10;;;;;;;18.38;76.79;101034.91;7355618;19;20015;-58
2023/07/19 02:30:44;;;;;;;0.00;0.00;;;;;;;18.38;77.13;101040.19;7351281;19;20033;-58
2023/07/19 02:33:13;;;;;;;0.10;0.10;;;;;;;18.26;76.80;101017.03;7355671;19;20018;-58
2023/07/19 02:35:39;;;;;;;0.03;0.03;;;;;;;18.31;76.32;101036.16;7348714;19;20070;-58
2023/07/19 02:38:05;;;;;;;0.00;0.00;;;;;;;18.30;76.91;101037.09;7350577;19;20740;-58
2023/07/19 02:40:30;;;;;;;0.10;0.10;;;;;;;18.14;75.71;101014.97;7348698;19;20014;-58
2023/07/19 02:42:56;;;;;;;0.10;0.10;;;;;;;18.21;76.07;101031.41;7356179;19;20010;-58
2023/07/19 02:45:23;;;;;;;0.00;0.00;;;;;;;18.20;76.41;101035.84;7352910;19;20470;-58
2023/07/19 02:47:48;;;;;;;0.10;0.10;;;;;;;18.16;76.54;101042.22;7351069;19;20022;-58
2023/07/19 02:50:14;;;;;;;0.00;0.00;;;;;;;18.12;76.49;101038.84;7353776;19;20501;-58
2023/07/19 02:52:39;;;;;;;0.10;0.10;;;;;;;18.10;75.92;101042.50;7354374;19;20113;-59
2023/07/19 02:55:05;;;;;;;0.08;0.08;;;;;;;18.06;75.74;101039.16;7344039;19;20020;-58
2023/07/19 02:57:30;;;;;;;0.00;0.00;;;;;;;18.01;76.65;101035.88;7354905;19;20011;-58
2023/07/19 02:59:56;;;;;;;0.10;0.10;;;;;;;18.02;76.77;101037.56;7353095;19;20373;-58
2023/07/19 03:02:21;;;;;;;0.10;0.10;;;;;;;17.99;76.91;101036.88;7354452;19;20010;-58
2023/07/19 03:04:46;;;;;;;0.00;0.00;;;;;;;17.98;77.05;101040.44;7353944;19;20117;-58
2023/07/19 03:07:12;;;;;;;0.10;0.10;;;;;;;17.90;76.87;101038.19;7352666;19;20006;-58
2023/07/19 03:09:37;;;;;;;0.03;0.03;;;;;;;17.91;76.55;101041.69;7351275;19;20799;-58
2023/07/19 03:12:03;;;;;;;0.10;0.10;;;;;;;17.93;76.44;101042.44;7351122;19;20020;-58
2023/07/19 03:14:28;;;;;;;0.10;0.10;;;;;;;17.91;75.77;101039.03;7352135;19;21076;-58
2023/07/19 03:16:54;;;;;;;0.10;0.10;;;;;;;17.88;75.46;101038.22;7353673;19;20014;-58
2023/07/19 03:19:19;;;;;;;0.10;0.10;;;;;;;17.86;74.91;101037.47;7329668;19;20002;-58
2023/07/19 03:21:45;;;;;;;0.00;0.00;;;;;;;17.83;75.66;101034.97;7354602;19;20038;-58
2023/07/19 03:24:12;;;;;;;0.10;0.10;;;;;;;17.82;76.10;101032.41;7350813;19;20010;-58
2023/07/19 03:26:37;;;;;;;0.10;0.10;;;;;;;17.80;76.68;101037.75;7356352;19;20022;-58
2023/07/19 03:29:03;;;;;;;0.10;0.10;;;;;;;17.78;76.21;101034.31;7348502;19;20346;-58
2023/07/19 03:31:28;;;;;;;0.00;0.00;;;;;;;17.78;76.30;101041.38;7353706;19;20038;-58
2023/07/19 03:33:53;;;;;;;0.10;0.10;;;;;;;17.75;76.80;101042.41;7349239;19;20002;-58
2023/07/19 03:36:19;;;;;;;0.10;0.10;;;;;;;17.75;76.18;101038.91;7350767;19;20482;-58
2023/07/19 03:38:44;;;;;;;0.10;0.10;;;;;;;17.73;76.40;101041.59;7351703;19;20014;-58
2023/07/19 03:41:09;;;;;;;0.05;0.05;;;;;;;17.70;76.42;101044.38;7353453;19;20024;-57
2023/07/19 03:43:38;;;;;;;0.00;0.00;;;;;;;17.71;76.24;101051.38;7350254;19;20061;-58
2023/07/19 03:46:05;;;;;;;0.05;0.05;;;;;;;17.69;76.34;101050.59;7350092;19;20011;-58
2023/07/19 03:48:31;;;;;;;0.10;0.10;;;;;;;17.64;75.91;101055.22;7348755;19;20057;-58
2023/07/19 03:51:00;;;;;;;0.10;0.10;;;;;;;17.66;75.67;101053.38;7353730;19;20003;-57
2023/07/19 03:53:28;;;;;;;0.10;0.10;;;;;;;17.60;75.87;101056.28;7350431;19;20014;-58
2023/07/19 03:55:58;;;;;;;0.10;0.10;;;;;;;17.60;75.51;101056.28;7354557;19;20019;-58
2023/07/19 03:58:24;;;;;;;0.00;0.00;;;;;;;17.55;76.10;101053.00;7335375;19;20026;-59
2023/07/19 04:00:54;;;;;;;0.10;0.10;;;;;;;17.48;76.14;101047.13;7351958;19;20477;-58
2023/07/19 04:03:21;;;;;;;0.10;0.10;;;;;;;17.51;75.98;101062.84;7350963;19;20329;-58
2023/07/19 04:05:46;;;;;;;0.00;0.00;;;;;;;17.42;75.85;101051.84;7355559;19;20752;-58
2023/07/19 04:08:14;;;;;;;0.00;0.00;;;;;;;17.50;76.37;101066.41;7349764;19;20049;-58
2023/07/19 04:10:40;;;;;;;0.10;0.10;;;;;;;17.48;76.26;101064.75;7350231;19;20616;-57
2023/07/19 04:13:06;;;;;;;0.10;0.10;;;;;;;17.46;76.14;101054.28;7348832;19;20018;-58
2023/07/19 04:15:32;;;;;;;0.10;0.10;;;;;;;17.43;75.72;101054.41;7354624;19;20010;-58
2023/07/19 04:17:57;;;;;;;0.03;0.03;;;;;;;17.38;76.19;101046.69;7356392;19;20022;-58
2023/07/19 04:20:23;;;;;;;0.10;0.10;;;;;;;17.46;75.76;101063.97;7350134;19;20427;-57
2023/07/19 04:22:48;;;;;;;0.00;0.00;;;;;;;17.47;76.11;101071.81;7353451;19;20010;-58
2023/07/19 04:25:14;;;;;;;0.00;0.00;;;;;;;17.48;76.15;101067.41;7353038;19;20536;-57
2023/07/19 04:27:39;;;;;;;0.10;0.10;;;;;;;17.47;76.75;101082.38;7351974;19;20086;-58
2023/07/19 04:30:05;;;;;;;0.10;0.10;;;;;;;17.42;76.56;101067.69;7351602;19;20046;-58
2023/07/19 04:32:31;;;;;;;0.10;0.10;;;;;;;17.47;76.81;101082.38;7349271;19;20544;-58
2023/07/19 04:34:58;;;;;;;0.10;0.10;;;;;;;17.46;76.33;101075.41;7350856;19;20014;-57
2023/07/19 04:37:23;;;;;;;0.00;0.00;;;;;;;17.45;76.78;101078.13;7350967;19;20010;-58
2023/07/19 04:39:49;;;;;;;0.10;0.10;;;;;;;17.46;76.80;101082.47;7351603;19;20050;-58
2023/07/19 04:42:16;;;;;;;0.10;0.10;;;;;;;17.45;76.62;101075.47;7346431;19;20018;-58
2023/07/19 04:44:41;;;;;;;0.03;0.03;;;;;;;17.43;76.64;101079.94;7351698;19;20014;-58
2023/07/19 04:47:08;;;;;;;0.10;0.10;;;;;;;17.43;76.66;101085.22;7350515;19;20018;-58
2023/07/19 04:49:34;;;;;;;0.00;0.00;;;;;;;17.42;76.03;101083.53;7351662;19;20711;-58
2023/07/19 04:51:59;;;;;;;0.10;0.10;;;;;;;17.41;76.18;101081.81;7349932;19;20032;-58
2023/07/19 04:54:25;;;;;;;0.00;0.00;;;;;;;17.40;75.90;101088.03;7353666;19;20018;-58
2023/07/19 04:56:50;;;;;;;0.10;0.10;;;;;;;17.02;76.32;101028.09;7346435;19;20014;-58
2023/07/19 04:59:16;;;;;;;0.10;0.10;;;;;;;17.36;76.09;101095.22;7350061;19;20078;-58
2023/07/19 05:01:41;;;;;;;0.08;0.08;;;;;;;17.35;76.30;101091.72;7342281;19;20109;-58
2023/07/19 05:04:06;;;;;;;0.08;0.08;;;;;;;17.31;76.16;101092.78;7353009;19;20029;-58
2023/07/19 05:06:32;;;;;;;0.10;0.10;;;;;;;17.32;75.93;101102.41;7348073;19;20017;-58
2023/07/19 05:08:57;;;;;;;0.10;0.10;;;;;;;17.32;76.23;101093.63;7352119;19;20014;-58
2023/07/19 05:11:25;;;;;;;0.00;0.00;;;;;;;17.31;76.58;101098.06;7349520;19;20025;-58
2023/07/19 05:13:50;;;;;;;;;;;;;;;17.35;75.34;101104.94;7351056;19;20689;-57
2023/07/19 05:16:16;;;;;;;0.10;0.10;;;;;;;17.30;75.78;101106.91;7348855;19;19919;-58
2023/07/19 05:18:41;;;;;;;0.00;0.00;;;;;;;17.29;76.21;101110.47;7352339;19;20026;-58
2023/07/19 05:21:07;;;;;;;0.10;0.10;;;;;;;17.23;75.91;101096.69;7347618;19;20981;-59
2023/07/19 05:23:32;;;;;;;0.10;0.10;;;;;;;17.25;76.34;101103.63;7353776;19;20715;-58
2023/07/19 05:25:57;;;;;;;0.00;0.00;;;;;;;17.26;76.39;101109.75;7346573;19;20010;-58
2023/07/19 05:28:23;;;;;;;0.05;0.05;;;;;;;17.25;76.35;101108.91;7352849;19;20037;-58
2023/07/19 05:30:48;;;;;;;0.00;0.00;;;;;;;17.24;76.30;101112.47;7347595;19;20014;-58
2023/07/19 05:33:14;;;;;;;0.10;0.10;;;;;;;17.26;76.35;101112.38;7353093;19;20013;-58
2023/07/19 05:35:40;;;;;;;0.10;0.10;;;;;;;17.24;76.69;101112.47;7347488;19;20025;-58
2023/07/19 05:38:05;;;;;;;0.05;0.05;;;;;;;17.28;76.34;101118.44;7357137;19;20007;-58
2023/07/19 05:40:31;;;;;;;0.10;0.10;;;;;;;17.29;76.58;101118.41;7353412;19;20081;-58
2023/07/19 05:42:57;;;;;;;0.10;0.10;;;;;;;17.31;76.63;101120.97;7348815;19;20006;-58
2023/07/19 05:45:22;;;;;;;0.00;0.00;;;;;;;17.32;76.72;101120.88;7351134;19;20031;-58
2023/07/19 05:47:48;;;;;;;0.00;0.00;;;;;;;17.35;76.04;101130.47;7350074;19;20010;-58
2023/07/19 05:50:14;;;;;;;0.10;0.10;;;;;;;17.34;76.66;101115.56;7350506;19;20012;-59
2023/07/19 05:52:39;;;;;;;0.08;0.08;;;;;;;17.37;76.30;101123.31;7354067;19;20019;-58
2023/07/19 05:55:06;;;;;;;0.08;0.08;;;;;;;17.35;76.52;101112.84;7349904;19;20007;-58
2023/07/19 05:57:32;;;;;;;0.10;0.10;;;;;;;17.44;76.84;101130.06;7349863;19;20745;-58
2023/07/19 06:00:06;;;;;;;0.10;0.10;;;;;;;17.50;76.33;101128.94;7348085;19;20017;-58
2023/07/19 06:02:32;;;;;;;0.00;0.00;;;;;;;17.49;76.47;101133.38;7351475;19;20018;-58
2023/07/19 06:04:57;;;;;;;0.10;0.10;;;;;;;17.52;76.63;101132.34;7349681;19;20760;-58
2023/07/19 06:07:23;;;;;;;0.10;0.10;;;;;;;17.55;76.71;101132.22;7352310;19;20014;-59
2023/07/19 06:09:49;;;;;;;0.00;0.00;;;;;;;17.54;76.66;101131.38;7353327;19;20234;-60
2023/07/19 06:12:14;;;;;;;0.00;0.00;;;;;;;17.59;76.45;101136.44;7354616;19;20010;-64
2023/07/19 06:14:39;;;;;;;0.10;0.10;;;;;;;17.61;76.65;101135.44;7353923;19;20003;-65
2023/07/19 06:17:05;;;;;;;0.10;0.10;;;;;;;17.63;76.55;101130.06;7355809;19;20011;-64
2023/07/19 06:19:31;;;;;;;0.10;0.10;;;;;;;17.66;76.52;101137.88;7357510;19;20171;-65
2023/07/19 06:21:56;;;;;;;0.10;0.10;;;;;;;17.69;76.71;101150.06;7356172;19;20554;-65
2023/07/19 06:24:22;;;;;;;0.08;0.08;;;;;;;17.70;76.32;101142.09;7359213;19;20387;-65
2023/07/19 06:26:47;;;;;;;0.10;0.10;;;;;;;17.72;76.19;101142.88;7359284;19;20558;-64
2023/07/19 06:29:13;;;;;;;0.10;0.10;;;;;;;17.74;76.35;101151.66;7356127;19;20021;-65
2023/07/19 06:31:39;;;;;;;0.10;0.10;;;;;;;17.77;76.41;101154.13;7357998;19;20018;-64
2023/07/19 06:34:04;;;;;;;0.10;0.10;;;;;;;17.81;76.10;101154.84;7358643;19;20355;-65
2023/07/19 06:36:30;;;;;;;0.10;0.10;;;;;;;17.81;76.19;101152.22;7356133;19;20014;-64
2023/07/19 06:38:55;;;;;;;0.10;0.10;;;;;;;17.89;76.49;101163.25;7354393;19;20014;-64
2023/07/19 06:41:20;;;;;;;0.05;0.05;;;;;;;17.70;76.16;101125.41;7357888;19;20038;-65
2023/07/19 06:43:46;;;;;;;0.00;0.00;;;;;;;18.01;76.12;101177.72;7349490;19;20022;-65
2023/07/19 06:46:11;;;;;;;0.10;0.10;;;;;;;18.06;75.81;101175.72;7358802;19;20094;-65
2023/07/19 06:48:37;;;;;;;0.00;0.00;;;;;;;18.09;75.80;101172.91;7351535;19;20051;-65
2023/07/19 06:51:02;;;;;;;0.10;0.10;;;;;;;18.14;75.17;101178.84;7353226;19;20015;-65
2023/07/19 06:53:28;;;;;;;0.10;0.10;;;;;;;18.17;75.33;101184.00;7349837;19;20014;-65
2023/07/19 06:56:01;;;;;;;0.00;0.00;;;;;;;18.24;75.05;101187.22;7358888;19;20023;-65
2023/07/19 06:58:27;;;;;;;0.10;0.10;;;;;;;18.23;74.94;101183.72;7353971;19;20718;-64
2023/07/19 07:00:56;;;;;;;0.10;0.10;;;;;;;18.29;75.08;101187.84;7358554;19;20797;-65
2023/07/19 07:03:22;;;;;;;0.10;0.10;;;;;;;18.27;74.91;101185.28;7354277;19;20639;-64
2023/07/19 07:05:47;;;;;;;0.10;0.10;;;;;;;18.25;74.76;101176.59;7355713;19;20029;-65
2023/07/19 07:08:13;;;;;;;0.10;0.10;;;;;;;18.29;74.74;101180.78;7358088;19;20014;-65
2023/07/19 07:10:41;;;;;;;0.10;0.10;;;;;;;18.33;74.49;101190.28;7354879;19;20145;-65
2023/07/19 07:13:06;;;;;;;0.10;0.10;;;;;;;18.31;74.46;101184.22;7354151;19;20034;-65
2023/07/19 07:15:32;;;;;;;0.10;0.10;;;;;;;18.31;74.28;101192.16;7357335;19;20014;-65
2023/07/19 07:17:57;;;;;;;0.10;0.10;;;;;;;18.32;74.23;101193.00;7358188;19;20011;-64
2023/07/19 07:20:23;;;;;;;0.00;0.00;;;;;;;18.32;74.42;101187.72;7359224;19;20377;-65
2023/07/19 07:22:48;;;;;;;0.00;0.00;;;;;;;18.32;74.11;101196.50;7351046;19;20031;-64
2023/07/19 07:25:14;;;;;;;0.08;0.08;;;;;;;18.33;74.12;101198.22;7355905;19;20362;-65
2023/07/19 07:27:39;;;;;;;0.00;0.00;;;;;;;18.34;73.68;101189.34;7352821;19;20027;-65
2023/07/19 07:30:07;;;;;;;0.10;0.10;;;;;;;18.37;73.45;101194.50;7358096;19;20045;-64
2023/07/19 07:32:34;;;;;;;0.10;0.10;;;;;;;18.38;73.65;101193.56;7354135;19;20010;-64
2023/07/19 07:34:59;;;;;;;0.10;0.10;;;;;;;18.40;73.90;101193.53;7357391;19;20022;-60
2023/07/19 07:37:25;;;;;;;0.10;0.10;;;;;;;18.44;73.73;101191.56;7331026;19;20022;-64
2023/07/19 07:39:50;;;;;;;0.10;0.10;;;;;;;18.44;73.74;101186.28;7352728;19;20030;-65
2023/07/19 07:42:16;;;;;;;0.03;0.03;;;;;;;18.53;73.78;101197.28;7352327;19;20017;-65
2023/07/19 07:44:41;;;;;;;0.10;0.10;;;;;;;18.57;73.81;101200.63;7356169;19;20031;-65
2023/07/19 07:47:07;;;;;;;0.10;0.10;;;;;;;18.60;73.28;101205.75;7354017;19;20078;-65
2023/07/19 07:49:33;;;;;;;0.08;0.08;;;;;;;18.61;72.74;101195.13;7350809;19;20663;-65
2023/07/19 07:51:59;;;;;;;0.10;0.10;;;;;;;18.64;72.95;101202.91;7352608;19;20014;-65
2023/07/19 07:54:24;;;;;;;0.00;0.00;;;;;;;18.69;72.05;101205.34;7357234;19;20011;-65
2023/07/19 07:56:49;;;;;;;0.05;0.05;;;;;;;18.73;72.33;101201.63;7354432;19;20129;-65
2023/07/19 07:59:15;;;;;;;0.10;0.10;;;;;;;18.79;73.10;101203.97;7352450;19;20421;-65
2023/07/19 08:01:41;;;;;;;0.10;0.10;;;;;;;18.86;72.76;101204.56;7352760;19;20020;-65
2023/07/19 08:04:09;;;;;;;0.10;0.10;;;;;;;18.91;73.27;101200.75;7353529;19;20010;-65
2023/07/19 08:06:36;;;;;;;0.03;0.03;;;;;;;18.92;72.86;101193.66;7350580;19;20022;-65
2023/07/19 08:09:01;;;;;;;0.10;0.10;;;;;;;19.08;72.54;101204.34;7348485;19;20010;-65
2023/07/19 08:11:27;;;;;;;0.03;0.03;;;;;;;19.11;72.44;101202.41;7354535;19;20021;-65
2023/07/19 08:13:53;;;;;;;0.10;0.10;;;;;;;19.12;72.61;101190.03;7354092;19;20940;-65
2023/07/19 08:16:18;;;;;;;0.10;0.10;;;;;;;19.25;72.38;101201.69;7353197;19;20256;-65
2023/07/19 08:18:44;;;;;;;0.10;0.10;;;;;;;19.31;71.88;101209.34;7350924;19;20462;-65
2023/07/19 08:21:10;;;;;;;0.10;0.10;;;;;;;19.34;71.83;101206.50;7350486;19;20011;-64
2023/07/19 08:23:35;;;;;;;0.10;0.10;;;;;;;19.38;71.41;101208.06;7349857;19;20018;-65
2023/07/19 08:26:01;;;;;;;0.10;0.10;;;;;;;19.41;71.15;101215.00;7351988;19;20014;-65
2023/07/19 08:28:26;;;;;;;0.10;0.10;;;;;;;19.09;71.74;101159.25;7356017;19;20379;-65
2023/07/19 08:30:54;;;;;;;0.00;0.00;;;;;;;19.50;71.74;101211.88;7353239;19;20016;-65
2023/07/19 08:33:24;;;;;;;0.10;0.10;;;;;;;19.53;71.14;101218.81;7333511;19;20021;-65
2023/07/19 08:35:50;;;;;;;0.10;0.10;;;;;;;19.52;70.33;101220.63;7344172;19;20483;-65
2023/07/19 08:38:17;;;;;;;0.10;0.10;;;;;;;19.54;70.23;101210.78;7350866;19;20568;-65
2023/07/19 08:40:53;;;;;;;0.10;0.10;;;;;;;19.59;70.82;101210.56;7353882;19;20118;-65
2023/07/19 08:43:19;;;;;;;0.10;0.10;;;;;;;19.57;69.73;101205.34;7351103;19;20018;-65
2023/07/19 08:45:45;;;;;;;0.10;0.10;;;;;;;19.63;69.77;101217.44;7348940;19;20030;-60
2023/07/19 08:48:10;;;;;;;0.10;0.10;;;;;;;19.68;70.13;101215.41;7325607;19;20016;-65
2023/07/19 08:50:36;;;;;;;0.10;0.10;;;;;;;19.72;69.39;101214.31;7340272;19;21065;-65
2023/07/19 08:53:02;;;;;;;0.00;0.00;;;;;;;19.75;69.59;101211.47;7342168;19;20014;-64
2023/07/19 08:55:33;;;;;;;0.10;0.10;;;;;;;19.85;69.18;101218.00;7337057;19;22197;-65
2023/07/19 08:57:59;;;;;;;0.10;0.10;;;;;;;19.79;69.42;101201.59;7344386;19;20808;-65
2023/07/19 09:00:27;;;;;;;0.10;0.10;;;;;;;19.92;69.37;101202.63;7343111;19;20011;-64
2023/07/19 09:02:54;;;;;;;0.10;0.10;;;;;;;20.00;69.13;101215.47;7341202;19;20015;-64
2023/07/19 09:05:19;;;;;;;0.10;0.10;;;;;;;20.03;67.92;101210.88;7343756;19;20021;-64
2023/07/19 09:07:48;;;;;;;0.10;0.10;;;;;;;20.12;68.03;101214.81;7340173;19;20007;-64
2023/07/19 09:10:13;;;;;;;0.10;0.10;;;;;;;20.16;66.78;101211.06;7337418;19;20025;-64
2023/07/19 09:12:40;;;;;;;0.10;0.10;;;;;;;20.23;67.89;101211.59;7343299;19;20007;-64
2023/07/19 09:15:08;;;;;;;0.10;0.10;;;;;;;20.25;68.06;101205.25;7339278;19;20920;-64
2023/07/19 09:17:46;;;;;;;0.10;0.10;;;;;;;20.27;66.51;101198.06;7341435;19;21170;-64
2023/07/19 09:20:12;;;;;;;0.05;0.05;;;;;;;20.42;66.49;101215.78;7338551;19;20575;-64
2023/07/19 09:22:39;;;;;;;0.10;0.10;;;;;;;20.47;66.43;101211.09;7341015;19;20010;-64
2023/07/19 09:25:06;;;;;;;0.10;0.10;;;;;;;20.52;66.13;101217.94;7339417;19;20011;-64
2023/07/19 09:27:32;;;;;;;0.10;0.10;;;;;;;20.62;65.85;101209.38;7341453;19;21014;-64
2023/07/19 09:29:59;;;;;;;0.00;0.00;;;;;;;20.64;66.47;101193.41;7341809;19;20018;-64
2023/07/19 09:32:24;;;;;;;0.10;0.10;;;;;;;20.93;66.56;101219.13;7336873;19;20014;-64
2023/07/19 09:34:55;;;;;;;0.10;0.10;;;;;;;21.26;67.22;101220.75;7340439;19;20034;-65
2023/07/19 09:37:25;;;;;;;0.10;0.10;;;;;;;21.50;64.40;101224.63;7337004;19;20027;-64
2023/07/19 09:39:52;;;;;;;0.10;0.10;;;;;;;21.74;64.23;101216.09;7340633;19;20636;-65
2023/07/19 09:42:18;;;;;;;;;;;;;;;22.12;69.08;101228.88;7341942;19;20030;-65
2023/07/19 09:44:46;;;;;;;0.10;0.10;;;;;;;22.03;63.28;101193.88;7343999;19;20609;-65
2023/07/19 09:47:12;;;;;;;0.10;0.10;;;;;;;22.36;63.13;101219.38;7344743;19;20007;-64
2023/07/19 09:49:37;;;;;;;0.10;0.10;;;;;;;22.45;62.23;101216.09;7349265;19;20007;-64
2023/07/19 09:52:04;;;;;;;0.10;0.10;;;;;;;22.57;61.89;101226.91;7346284;19;20490;-64
2023/07/19 09:54:33;;;;;;;0.10;0.10;;;;;;;22.38;63.38;101169.53;7348374;19;20014;-65
2023/07/19 09:56:59;;;;;;;0.10;0.10;;;;;;;22.78;62.46;101220.19;7347678;19;20018;-64
2023/07/19 09:59:33;;;;;;;0.10;0.10;;;;;;;23.00;62.69;101225.84;7347444;19;20958;-61
2023/07/19 10:01:59;;;;;;;0.03;0.03;;;;;;;23.05;61.53;101223.72;7347353;19;20010;-64
2023/07/19 10:04:27;;;;;;;0.00;0.00;;;;;;;23.21;61.11;101223.53;7348730;19;20021;-65
2023/07/19 10:07:18;;;;;;;0.10;0.10;;;;;;;23.41;63.00;101234.66;7345095;19;20816;-64
2023/07/19 10:09:45;;;;;;;0.10;0.10;;;;;;;23.40;58.83;101228.47;7342910;19;20025;-64
2023/07/19 10:12:16;;;;;;;;;;;;;;;23.59;63.59;101232.56;7347081;19;20056;-64
2023/07/19 10:14:54;;;;;;;0.10;0.10;;;;;;;23.56;59.85;101233.63;7341442;19;19937;-64
2023/07/19 10:17:20;;;;;;;0.10;0.10;;;;;;;23.46;59.66;101228.06;7345188;19;20018;-64
2023/07/19 10:20:14;;;;;;;0.10;0.10;;;;;;;23.52;61.35;101232.16;7344918;19;20516;-64
2023/07/19 10:22:53;;;;;;;0.10;0.10;;;;;;;23.52;61.82;101225.00;7244993;19;2004474;-65
2023/07/19 10:25:31;;;;;;;0.10;0.10;;;;;;;23.63;62.16;101213.63;7343419;19;20455;-64
2023/07/19 10:28:00;;;;;;;0.10;0.10;;;;;;;23.84;60.23;101221.09;7343128;19;20022;-65
2023/07/19 10:30:46;;;;;;;0.10;0.10;;;;;;;24.32;63.20;101219.41;7345593;19;20771;-64
2023/07/19 10:33:22;;;;;;;0.10;0.10;;;;;;;24.69;61.69;101225.63;7346855;19;20014;-64
2023/07/19 10:35:49;;;;;;;0.00;0.00;;;;;;;24.93;58.65;101222.94;7347246;19;20553;-65
2023/07/19 10:38:20;;;;;;;0.10;0.10;;;;;;;25.24;58.18;101226.00;7348317;19;20348;-64
2023/07/19 10:41:03;;;;;;;0.00;0.00;;;;;;;25.56;59.41;101224.41;7338616;19;20026;-64
2023/07/19 10:43:31;;;;;;;0.00;0.00;;;;;;;25.75;56.70;101222.97;7347530;19;20037;-65
2023/07/19 10:46:00;;;;;;;0.10;0.10;;;;;;;26.04;55.99;101209.97;7340019;19;21264;-65
2023/07/19 10:48:29;;;;;;;0.10;0.10;;;;;;;26.44;58.00;101206.81;7348264;19;20018;-65
2023/07/19 10:50:59;;;;;;;0.08;0.08;;;;;;;26.91;55.62;101216.28;7342145;19;20098;-64
2023/07/19 10:53:25;;;;;;;0.00;0.00;;;;;;;27.10;54.11;101197.69;7354368;19;20014;-64
2023/07/19 10:55:55;;;;;;;0.10;0.10;;;;;;;27.59;53.71;101216.81;7358001;19;20010;-64
2023/07/19 10:58:21;;;;;;;0.00;0.00;;;;;;;27.70;53.25;101213.19;7332942;19;20007;-65
2023/07/19 11:00:47;;;;;;;0.10;0.10;;;;;;;27.83;52.16;101221.88;7350547;19;21187;-65
2023/07/19 11:03:16;;;;;;;0.10;0.10;;;;;;;27.88;50.84;101217.00;7352599;19;20070;-64
2023/07/19 11:05:49;;;;;;;0.00;0.00;;;;;;;27.94;52.86;101221.81;7355529;19;20018;-64
2023/07/19 11:08:21;;;;;;;0.05;0.05;;;;;;;27.85;50.36;101214.56;7355604;19;20456;-64
2023/07/19 11:10:51;;;;;;;0.00;0.00;;;;;;;27.66;48.43;101229.53;7356342;19;20382;-64
2023/07/19 11:13:18;;;;;;;0.10;0.10;;;;;;;27.50;47.17;101233.69;7352528;19;20014;-65
2023/07/19 11:15:48;;;;;;;0.10;0.10;;;;;;;27.32;50.43;101225.38;7358807;19;20006;-64
2023/07/19 11:18:26;;;;;;;0.10;0.10;;;;;;;27.18;52.06;101233.75;7350982;19;20010;-64
2023/07/19 11:20:52;;;;;;;0.10;0.10;;;;;;;26.87;52.02;101226.41;7353615;19;20013;-65
2023/07/19 11:23:17;;;;;;;0.10;0.10;;;;;;;26.78;50.06;101237.03;7351620;19;20007;-65
2023/07/19 11:25:43;;;;;;;0.10;0.10;;;;;;;26.63;50.50;101233.78;7350007;19;20013;-64